createdAt,value
2017-10-24T00:00:24.327Z,0
2017-10-24T00:01:24.288Z,0
2017-10-24T00:02:24.268Z,0
2017-10-24T00:03:23.595Z,0
2017-10-24T00:04:23.908Z,0
2017-10-24T00:05:24.224Z,0
2017-10-24T00:06:24.217Z,0
2017-10-24T00:07:23.869Z,0
2017-10-24T00:08:24.510Z,0
2017-10-24T00:09:23.845Z,0
2017-10-24T00:10:23.819Z,0
2017-10-24T00:11:24.137Z,0
2017-10-24T00:12:24.446Z,0
2017-10-24T00:13:24.447Z,0
2017-10-24T00:14:24.092Z,0
2017-10-24T00:15:24.081Z,0
2017-10-24T00:16:23.729Z,0
2017-10-24T00:17:23.377Z,0
2017-10-24T00:18:23.708Z,0
2017-10-24T00:19:23.680Z,0
2017-10-24T00:20:23.329Z,0
2017-10-24T00:21:23.982Z,0
2017-10-24T00:22:23.650Z,0
2017-10-24T00:23:23.951Z,0
2017-10-24T00:24:23.620Z,0
2017-10-24T00:25:23.257Z,0
2017-10-24T00:26:23.571Z,0
2017-10-24T00:27:23.560Z,0
2017-10-24T00:28:23.878Z,0
2017-10-24T00:29:23.536Z,0
2017-10-24T00:30:23.525Z,0
2017-10-24T00:31:23.839Z,0
2017-10-24T00:32:23.489Z,0
2017-10-24T00:33:23.818Z,0
2017-10-24T00:34:23.812Z,0
2017-10-24T00:35:23.446Z,0
2017-10-24T00:36:24.098Z,0
2017-10-24T00:37:23.749Z,0
2017-10-24T00:38:23.726Z,0
2017-10-24T00:39:23.046Z,0
2017-10-24T00:40:23.050Z,0
2017-10-24T00:41:23.352Z,0
2017-10-24T00:42:23.005Z,0
2017-10-24T00:43:23.662Z,0
2017-10-24T00:44:23.984Z,0
2017-10-24T00:45:23.635Z,0
2017-10-24T00:46:23.626Z,0
2017-10-24T00:47:23.604Z,0
2017-10-24T00:48:23.249Z,0
2017-10-24T00:49:23.914Z,0
2017-10-24T00:50:23.881Z,0
2017-10-24T00:51:23.214Z,0
2017-10-24T00:52:23.524Z,0
2017-10-24T00:53:23.191Z,0
2017-10-24T00:54:23.157Z,0
2017-10-24T00:55:23.478Z,0
2017-10-24T00:56:23.458Z,0
2017-10-24T00:57:23.456Z,0
2017-10-24T00:58:23.455Z,0
2017-10-24T00:59:23.095Z,0
2017-10-24T01:00:23.409Z,0
2017-10-24T01:01:23.736Z,0
2017-10-24T01:02:23.381Z,0
2017-10-24T01:03:23.359Z,0
2017-10-24T01:04:23.346Z,0
2017-10-24T01:05:23.664Z,0
2017-10-24T01:06:23.647Z,0
2017-10-24T01:07:23.319Z,0
2017-10-24T01:08:23.618Z,0
2017-10-24T01:09:22.934Z,0
2017-10-24T01:10:23.248Z,0
2017-10-24T01:11:23.574Z,0
2017-10-24T01:12:23.221Z,0
2017-10-24T01:13:22.879Z,0
2017-10-24T01:14:23.200Z,0
2017-10-24T01:15:23.188Z,0
2017-10-24T01:16:22.828Z,0
2017-10-24T01:17:23.148Z,0
2017-10-24T01:18:23.461Z,0
2017-10-24T01:19:22.793Z,0
2017-10-24T01:20:23.443Z,0
2017-10-24T01:21:22.758Z,0
2017-10-24T01:22:23.429Z,0
2017-10-24T01:23:23.275Z,0
2017-10-24T01:24:23.047Z,0
2017-10-24T01:25:23.036Z,0
2017-10-24T01:26:23.064Z,0
2017-10-24T01:27:23.005Z,0
2017-10-24T01:28:22.984Z,0
2017-10-24T01:29:22.647Z,0
2017-10-24T01:30:22.959Z,0
2017-10-24T01:31:22.609Z,0
2017-10-24T01:32:22.591Z,0
2017-10-24T01:33:22.580Z,0
2017-10-24T01:34:22.897Z,0
2017-10-24T01:35:22.210Z,0
2017-10-24T01:36:23.207Z,0
2017-10-24T01:37:23.212Z,0
2017-10-24T01:38:22.841Z,0
2017-10-24T01:39:22.826Z,0
2017-10-24T01:40:22.810Z,0
2017-10-24T01:41:22.463Z,0
2017-10-24T01:42:22.781Z,0
2017-10-24T01:43:23.102Z,0
2017-10-24T01:44:22.756Z,0
2017-10-24T01:45:22.078Z,0
2017-10-24T01:46:22.727Z,0
2017-10-24T01:47:22.043Z,0
2017-10-24T01:48:22.701Z,0
2017-10-24T01:49:23.009Z,0
2017-10-24T01:50:22.329Z,0
2017-10-24T01:51:22.652Z,0
2017-10-24T01:52:22.976Z,0
2017-10-24T01:53:22.613Z,0
2017-10-24T01:54:22.607Z,0
2017-10-24T01:55:22.257Z,0
2017-10-24T01:56:22.917Z,0
2017-10-24T01:57:22.582Z,0
2017-10-24T01:58:22.548Z,0
2017-10-24T01:59:22.203Z,0
2017-10-24T02:00:22.510Z,0
2017-10-24T02:01:22.160Z,0
2017-10-24T02:02:22.146Z,0
2017-10-24T02:03:22.459Z,0
2017-10-24T02:04:22.461Z,0
2017-10-24T02:05:22.443Z,0
2017-10-24T02:06:22.427Z,0
2017-10-24T02:07:22.416Z,0
2017-10-24T02:08:22.399Z,0
2017-10-24T02:09:22.723Z,0
2017-10-24T02:10:22.365Z,0
2017-10-24T02:11:22.344Z,0
2017-10-24T02:12:22.007Z,0
2017-10-24T02:13:22.673Z,0
2017-10-24T02:14:22.631Z,0
2017-10-24T02:15:22.288Z,0
2017-10-24T02:16:22.618Z,0
2017-10-24T02:17:22.264Z,0
2017-10-24T02:18:22.238Z,0
2017-10-24T02:19:22.570Z,0
2017-10-24T02:20:21.890Z,0
2017-10-24T02:21:22.537Z,0
2017-10-24T02:22:22.181Z,0
2017-10-24T02:23:21.834Z,0
2017-10-24T02:24:22.156Z,0
2017-10-24T02:25:21.808Z,0
2017-10-24T02:26:21.459Z,0
2017-10-24T02:27:22.116Z,0
2017-10-24T02:28:21.765Z,0
2017-10-24T02:29:21.741Z,0
2017-10-24T02:30:22.063Z,0
2017-10-24T02:31:22.055Z,0
2017-10-24T02:32:22.061Z,0
2017-10-24T02:33:22.040Z,0
2017-10-24T02:34:21.669Z,0
2017-10-24T02:35:22.331Z,0
2017-10-24T02:36:21.312Z,0
2017-10-24T02:37:21.623Z,0
2017-10-24T02:38:21.939Z,0
2017-10-24T02:39:21.609Z,0
2017-10-24T02:40:21.926Z,0
2017-10-24T02:41:21.572Z,0
2017-10-24T02:42:21.550Z,0
2017-10-24T02:43:21.893Z,0
2017-10-24T02:44:22.188Z,0
2017-10-24T02:45:22.169Z,0
2017-10-24T02:46:21.836Z,0
2017-10-24T02:47:21.478Z,0
2017-10-24T02:48:21.800Z,0
2017-10-24T02:49:21.788Z,0
2017-10-24T02:50:21.434Z,0
2017-10-24T02:51:21.763Z,0
2017-10-24T02:52:21.745Z,0
2017-10-24T02:53:21.733Z,0
2017-10-24T02:54:22.057Z,0
2017-10-24T02:55:21.376Z,0
2017-10-24T02:56:21.346Z,0
2017-10-24T02:57:22.005Z,0
2017-10-24T02:58:21.321Z,0
2017-10-24T02:59:21.294Z,0
2017-10-24T03:00:21.963Z,0
2017-10-24T03:01:21.614Z,0
2017-10-24T03:02:21.252Z,0
2017-10-24T03:03:21.581Z,0
2017-10-24T03:04:21.231Z,0
2017-10-24T03:05:21.884Z,0
2017-10-24T03:06:21.215Z,0
2017-10-24T03:07:20.865Z,0
2017-10-24T03:08:21.513Z,0
2017-10-24T03:09:20.824Z,0
2017-10-24T03:10:21.817Z,0
2017-10-24T03:11:21.460Z,0
2017-10-24T03:12:21.116Z,0
2017-10-24T03:13:21.758Z,0
2017-10-24T03:14:21.424Z,0
2017-10-24T03:15:21.067Z,0
2017-10-24T03:16:21.715Z,0
2017-10-24T03:17:20.702Z,0
2017-10-24T03:18:21.019Z,0
2017-10-24T03:19:21.666Z,0
2017-10-24T03:20:20.991Z,0
2017-10-24T03:21:21.302Z,0
2017-10-24T03:22:21.289Z,0
2017-10-24T03:23:21.809Z,0
2017-10-24T03:24:20.925Z,0
2017-10-24T03:25:21.257Z,0
2017-10-24T03:26:21.235Z,0
2017-10-24T03:27:20.875Z,0
2017-10-24T03:28:21.201Z,0
2017-10-24T03:29:20.853Z,0
2017-10-24T03:30:21.176Z,0
2017-10-24T03:31:21.174Z,0
2017-10-24T03:32:21.481Z,0
2017-10-24T03:33:20.455Z,0
2017-10-24T03:34:21.107Z,0
2017-10-24T03:35:21.443Z,0
2017-10-24T03:36:20.774Z,0
2017-10-24T03:37:21.072Z,0
2017-10-24T03:38:20.717Z,0
2017-10-24T03:39:21.036Z,0
2017-10-24T03:40:20.687Z,0
2017-10-24T03:41:21.013Z,0
2017-10-24T03:42:21.021Z,0
2017-10-24T03:43:20.982Z,0
2017-10-24T03:44:20.294Z,0
2017-10-24T03:45:21.286Z,0
2017-10-24T03:46:20.944Z,0
2017-10-24T03:47:21.258Z,0
2017-10-24T03:48:20.577Z,0
2017-10-24T03:49:21.236Z,0
2017-10-24T03:50:20.208Z,0
2017-10-24T03:51:20.860Z,0
2017-10-24T03:52:21.195Z,0
2017-10-24T03:53:20.831Z,0
2017-10-24T03:54:20.818Z,0
2017-10-24T03:55:20.803Z,0
2017-10-24T03:56:21.128Z,0
2017-10-24T03:57:20.787Z,0
2017-10-24T03:58:21.102Z,0
2017-10-24T03:59:21.072Z,0
2017-10-24T04:00:20.736Z,0
2017-10-24T04:01:20.380Z,0
2017-10-24T04:02:20.371Z,0
2017-10-24T04:03:20.682Z,0
2017-10-24T04:04:20.681Z,0
2017-10-24T04:05:20.650Z,0
2017-10-24T04:06:20.639Z,0
2017-10-24T04:07:20.641Z,0
2017-10-24T04:08:20.623Z,0
2017-10-24T04:09:20.932Z,0
2017-10-24T04:10:20.580Z,0
2017-10-24T04:11:20.579Z,0
2017-10-24T04:12:20.562Z,0
2017-10-24T04:13:20.210Z,0
2017-10-24T04:14:20.525Z,0
2017-10-24T04:15:20.852Z,0
2017-10-24T04:16:19.824Z,0
2017-10-24T04:17:20.148Z,0
2017-10-24T04:18:20.464Z,0
2017-10-24T04:19:20.116Z,0
2017-10-24T04:20:20.758Z,0
2017-10-24T04:21:20.423Z,0
2017-10-24T04:22:20.410Z,0
2017-10-24T04:23:20.053Z,0
2017-10-24T04:24:20.382Z,0
2017-10-24T04:25:20.695Z,0
2017-10-24T04:26:20.346Z,0
2017-10-24T04:27:20.336Z,0
2017-10-24T04:28:19.651Z,0
2017-10-24T04:29:20.633Z,0
2017-10-24T04:30:20.285Z,0
2017-10-24T04:31:20.274Z,0
2017-10-24T04:32:20.261Z,0
2017-10-24T04:33:20.580Z,0
2017-10-24T04:34:20.237Z,0
2017-10-24T04:35:20.220Z,0
2017-10-24T04:36:19.528Z,0
2017-10-24T04:37:20.525Z,0
2017-10-24T04:38:19.842Z,0
2017-10-24T04:39:20.489Z,0
2017-10-24T04:40:20.145Z,0
2017-10-24T04:41:20.134Z,0
2017-10-24T04:42:20.113Z,0
2017-10-24T04:43:20.092Z,0
2017-10-24T04:44:20.519Z,0
2017-10-24T04:45:19.739Z,0
2017-10-24T04:46:19.718Z,0
2017-10-24T04:47:20.034Z,0
2017-10-24T04:48:20.011Z,0
2017-10-24T04:49:20.337Z,0
2017-10-24T04:50:19.329Z,0
2017-10-24T04:51:19.658Z,0
2017-10-24T04:52:19.632Z,0
2017-10-24T04:53:19.612Z,0
2017-10-24T04:54:19.926Z,0
2017-10-24T04:55:19.928Z,0
2017-10-24T04:56:19.905Z,0
2017-10-24T04:57:20.230Z,0
2017-10-24T04:58:19.206Z,0
2017-10-24T04:59:19.529Z,0
2017-10-24T05:00:19.511Z,0
2017-10-24T05:01:19.167Z,0
2017-10-24T05:02:19.834Z,0
2017-10-24T05:03:19.822Z,0
2017-10-24T05:04:19.447Z,0
2017-10-24T05:05:19.769Z,0
2017-10-24T05:06:19.091Z,0
2017-10-24T05:07:19.753Z,0
2017-10-24T05:08:20.071Z,0
2017-10-24T05:09:19.386Z,0
2017-10-24T05:10:19.694Z,0
2017-10-24T05:11:20.020Z,0
2017-10-24T05:12:20.021Z,0
2017-10-24T05:13:19.649Z,0
2017-10-24T05:14:19.996Z,0
2017-10-24T05:15:18.966Z,0
2017-10-24T05:16:19.281Z,0
2017-10-24T05:17:19.927Z,0
2017-10-24T05:18:19.253Z,0
2017-10-24T05:19:19.561Z,0
2017-10-24T05:20:18.883Z,0
2017-10-24T05:21:19.874Z,0
2017-10-24T05:22:19.521Z,0
2017-10-24T05:23:19.384Z,0
2017-10-24T05:24:19.490Z,0
2017-10-24T05:25:19.485Z,0
2017-10-24T05:26:19.145Z,0
2017-10-24T05:27:19.453Z,0
2017-10-24T05:28:19.442Z,0
2017-10-24T05:29:19.502Z,0
2017-10-24T05:30:19.100Z,0
2017-10-24T05:31:19.403Z,0
2017-10-24T05:32:19.047Z,0
2017-10-24T05:33:19.354Z,0
2017-10-24T05:34:19.343Z,0
2017-10-24T05:35:18.992Z,0
2017-10-24T05:36:19.319Z,0
2017-10-24T05:37:19.300Z,0
2017-10-24T05:38:18.957Z,0
2017-10-24T05:39:18.937Z,0
2017-10-24T05:40:19.274Z,0
2017-10-24T05:41:18.919Z,0
2017-10-24T05:42:19.231Z,0
2017-10-24T05:43:19.210Z,0
2017-10-24T05:44:19.683Z,0
2017-10-24T05:45:18.522Z,0
2017-10-24T05:46:19.179Z,0
2017-10-24T05:47:19.159Z,4
2017-10-24T05:48:18.808Z,4
2017-10-24T05:49:19.143Z,0
2017-10-24T05:50:19.125Z,4
2017-10-24T05:51:19.439Z,4
2017-10-24T05:52:19.088Z,4
2017-10-24T05:53:18.749Z,8
2017-10-24T05:54:19.070Z,4
2017-10-24T05:55:19.404Z,8
2017-10-24T05:56:19.035Z,8
2017-10-24T05:57:19.357Z,12
2017-10-24T05:58:19.000Z,16
2017-10-24T05:59:18.990Z,20
2017-10-24T06:00:19.319Z,20
2017-10-24T06:01:18.971Z,20
2017-10-24T06:02:18.945Z,24
2017-10-24T06:03:18.919Z,24
2017-10-24T06:04:18.592Z,28
2017-10-24T06:05:18.909Z,32
2017-10-24T06:06:18.563Z,32
2017-10-24T06:07:18.873Z,32
2017-10-24T06:08:18.523Z,40
2017-10-24T06:09:18.501Z,40
2017-10-24T06:10:18.151Z,52
2017-10-24T06:11:18.824Z,48
2017-10-24T06:12:18.468Z,52
2017-10-24T06:13:18.450Z,52
2017-10-24T06:14:19.102Z,56
2017-10-24T06:15:18.414Z,60
2017-10-24T06:16:18.743Z,60
2017-10-24T06:17:19.056Z,64
2017-10-24T06:18:18.383Z,60
2017-10-24T06:19:18.697Z,56
2017-10-24T06:20:18.688Z,60
2017-10-24T06:21:18.327Z,72
2017-10-24T06:22:18.312Z,76
2017-10-24T06:23:18.630Z,88
2017-10-24T06:24:18.290Z,100
2017-10-24T06:25:18.948Z,112
2017-10-24T06:26:18.599Z,136
2017-10-24T06:27:18.572Z,164
2017-10-24T06:28:18.246Z,196
2017-10-24T06:29:18.209Z,204
2017-10-24T06:30:18.862Z,208
2017-10-24T06:31:18.839Z,196
2017-10-24T06:32:18.506Z,192
2017-10-24T06:33:18.500Z,192
2017-10-24T06:34:18.483Z,216
2017-10-24T06:35:18.285Z,224
2017-10-24T06:36:18.448Z,204
2017-10-24T06:37:18.100Z,204
2017-10-24T06:38:18.786Z,212
2017-10-24T06:39:18.083Z,212
2017-10-24T06:40:18.731Z,208
2017-10-24T06:41:18.403Z,220
2017-10-24T06:42:18.691Z,208
2017-10-24T06:43:18.014Z,224
2017-10-24T06:44:18.331Z,240
2017-10-24T06:45:18.650Z,232
2017-10-24T06:46:17.640Z,220
2017-10-24T06:47:18.293Z,252
2017-10-24T06:48:18.268Z,260
2017-10-24T06:49:17.586Z,260
2017-10-24T06:50:18.442Z,252
2017-10-24T06:51:18.560Z,256
2017-10-24T06:52:17.883Z,264
2017-10-24T06:53:18.207Z,260
2017-10-24T06:54:17.844Z,276
2017-10-24T06:55:18.181Z,312
2017-10-24T06:56:17.829Z,368
2017-10-24T06:57:18.469Z,412
2017-10-24T06:58:18.461Z,472
2017-10-24T06:59:17.789Z,500
2017-10-24T07:00:18.433Z,496
2017-10-24T07:01:18.408Z,512
2017-10-24T07:02:18.419Z,552
2017-10-24T07:03:18.049Z,552
2017-10-24T07:04:18.368Z,552
2017-10-24T07:05:18.374Z,556
2017-10-24T07:06:17.680Z,592
2017-10-24T07:07:18.323Z,624
2017-10-24T07:08:18.329Z,720
2017-10-24T07:09:17.289Z,848
2017-10-24T07:10:18.284Z,948
2017-10-24T07:11:17.607Z,1036
2017-10-24T07:12:17.250Z,1056
2017-10-24T07:13:17.238Z,1088
2017-10-24T07:14:17.554Z,1144
2017-10-24T07:15:17.548Z,1276
2017-10-24T07:16:18.203Z,1292
2017-10-24T07:17:17.858Z,1284
2017-10-24T07:18:17.514Z,1396
2017-10-24T07:19:17.508Z,1440
2017-10-24T07:20:17.152Z,1392
2017-10-24T07:21:18.137Z,1316
2017-10-24T07:22:17.434Z,1212
2017-10-24T07:23:17.988Z,1316
2017-10-24T07:24:17.750Z,1400
2017-10-24T07:25:17.732Z,1376
2017-10-24T07:26:17.717Z,1584
2017-10-24T07:27:17.712Z,1584
2017-10-24T07:28:17.691Z,1616
2017-10-24T07:29:18.021Z,1632
2017-10-24T07:30:17.010Z,1624
2017-10-24T07:31:17.996Z,1432
2017-10-24T07:32:17.635Z,1572
2017-10-24T07:33:17.632Z,1416
2017-10-24T07:34:17.947Z,1564
2017-10-24T07:35:16.940Z,1616
2017-10-24T07:36:17.241Z,1616
2017-10-24T07:37:17.579Z,1712
2017-10-24T07:38:17.536Z,1784
2017-10-24T07:39:17.219Z,1868
2017-10-24T07:40:17.857Z,2016
2017-10-24T07:41:17.530Z,2036
2017-10-24T07:42:17.146Z,2080
2017-10-24T07:43:17.166Z,2072
2017-10-24T07:44:17.808Z,2312
2017-10-24T07:45:17.788Z,2524
2017-10-24T07:46:17.431Z,2276
2017-10-24T07:47:17.085Z,2332
2017-10-24T07:48:17.395Z,2604
2017-10-24T07:49:17.436Z,2604
2017-10-24T07:50:17.369Z,2736
2017-10-24T07:51:17.681Z,2644
2017-10-24T07:52:17.347Z,2544
2017-10-24T07:53:16.986Z,2728
2017-10-24T07:54:17.308Z,2692
2017-10-24T07:55:17.292Z,2648
2017-10-24T07:56:17.614Z,2844
2017-10-24T07:57:17.267Z,2740
2017-10-24T07:58:17.249Z,2672
2017-10-24T07:59:17.573Z,2652
2017-10-24T08:00:17.216Z,2676
2017-10-24T08:01:17.538Z,2736
2017-10-24T08:02:16.526Z,2808
2017-10-24T08:03:16.506Z,2992
2017-10-24T08:04:16.844Z,3096
2017-10-24T08:05:17.165Z,2880
2017-10-24T08:06:17.488Z,3008
2017-10-24T08:07:16.788Z,3212
2017-10-24T08:08:17.111Z,3512
2017-10-24T08:09:17.094Z,3716
2017-10-24T08:10:17.102Z,3336
2017-10-24T08:11:16.737Z,3492
2017-10-24T08:12:17.066Z,3484
2017-10-24T08:13:17.032Z,3220
2017-10-24T08:14:17.024Z,3520
2017-10-24T08:15:16.357Z,3712
2017-10-24T08:16:17.325Z,3504
2017-10-24T08:17:16.641Z,3380
2017-10-24T08:18:16.643Z,2836
2017-10-24T08:19:17.287Z,2800
2017-10-24T08:20:16.595Z,2748
2017-10-24T08:21:16.594Z,2980
2017-10-24T08:22:16.903Z,3416
2017-10-24T08:23:16.898Z,3908
2017-10-24T08:24:16.556Z,4076
2017-10-24T08:25:16.535Z,3448
2017-10-24T08:26:16.863Z,3424
2017-10-24T08:27:16.179Z,3464
2017-10-24T08:28:16.834Z,4056
2017-10-24T08:29:16.848Z,4816
2017-10-24T08:30:16.794Z,4440
2017-10-24T08:31:16.802Z,3796
2017-10-24T08:32:16.790Z,3372
2017-10-24T08:33:16.432Z,3196
2017-10-24T08:34:16.401Z,3172
2017-10-24T08:35:16.735Z,3100
2017-10-24T08:36:16.716Z,2896
2017-10-24T08:37:16.697Z,3328
2017-10-24T08:38:16.697Z,3604
2017-10-24T08:39:16.348Z,4048
2017-10-24T08:40:16.997Z,3856
2017-10-24T08:41:16.645Z,3780
2017-10-24T08:42:16.634Z,3940
2017-10-24T08:43:16.627Z,4156
2017-10-24T08:44:16.944Z,4280
2017-10-24T08:45:16.592Z,4232
2017-10-24T08:46:16.915Z,4484
2017-10-24T08:47:16.906Z,4016
2017-10-24T08:48:16.550Z,4428
2017-10-24T08:49:16.208Z,4444
2017-10-24T08:50:16.850Z,4628
2017-10-24T08:51:16.171Z,4180
2017-10-24T08:52:16.848Z,4340
2017-10-24T08:53:15.814Z,4528
2017-10-24T08:54:16.806Z,4860
2017-10-24T08:55:16.129Z,4716
2017-10-24T08:56:16.448Z,4712
2017-10-24T08:57:16.786Z,4504
2017-10-24T08:58:16.412Z,5060
2017-10-24T08:59:16.405Z,5072
2017-10-24T09:00:16.059Z,5268
2017-10-24T09:01:16.036Z,5152
2017-10-24T09:02:16.367Z,5220
2017-10-24T09:03:16.353Z,5692
2017-10-24T09:04:16.335Z,5884
2017-10-24T09:05:16.317Z,5628
2017-10-24T09:06:16.314Z,6224
2017-10-24T09:07:15.628Z,6212
2017-10-24T09:08:16.277Z,6224
2017-10-24T09:09:16.271Z,5340
2017-10-24T09:10:16.590Z,5628
2017-10-24T09:11:15.586Z,6080
2017-10-24T09:12:15.896Z,6124
2017-10-24T09:13:16.220Z,6344
2017-10-24T09:14:15.869Z,6336
2017-10-24T09:15:16.201Z,6424
2017-10-24T09:16:15.849Z,5756
2017-10-24T09:17:15.501Z,5164
2017-10-24T09:18:15.488Z,5376
2017-10-24T09:19:16.146Z,4540
2017-10-24T09:20:16.137Z,4156
2017-10-24T09:21:16.143Z,4532
2017-10-24T09:22:15.769Z,4520
2017-10-24T09:23:16.492Z,4068
2017-10-24T09:24:16.078Z,3904
2017-10-24T09:25:16.069Z,4032
2017-10-24T09:26:16.048Z,4904
2017-10-24T09:27:16.374Z,5312
2017-10-24T09:28:16.027Z,5212
2017-10-24T09:29:16.354Z,5000
2017-10-24T09:30:15.665Z,4244
2017-10-24T09:31:15.981Z,4520
2017-10-24T09:32:15.967Z,4688
2017-10-24T09:33:15.620Z,4396
2017-10-24T09:34:15.626Z,4276
2017-10-24T09:35:15.608Z,4492
2017-10-24T09:36:16.271Z,4368
2017-10-24T09:37:15.918Z,4544
2017-10-24T09:38:15.571Z,4108
2017-10-24T09:39:15.879Z,4092
2017-10-24T09:40:16.202Z,3596
2017-10-24T09:41:16.194Z,3872
2017-10-24T09:42:15.508Z,3696
2017-10-24T09:43:15.168Z,3736
2017-10-24T09:44:15.493Z,3520
2017-10-24T09:45:15.804Z,3548
2017-10-24T09:46:15.456Z,3480
2017-10-24T09:47:15.457Z,3448
2017-10-24T09:48:16.102Z,3196
2017-10-24T09:49:15.415Z,3672
2017-10-24T09:50:15.079Z,3832
2017-10-24T09:51:15.403Z,3596
2017-10-24T09:52:16.056Z,4400
2017-10-24T09:53:15.402Z,4140
2017-10-24T09:54:16.019Z,4156
2017-10-24T09:55:15.342Z,4220
2017-10-24T09:56:15.662Z,3776
2017-10-24T09:57:15.326Z,3596
2017-10-24T09:58:15.969Z,3852
2017-10-24T09:59:15.628Z,3164
2017-10-24T10:00:15.939Z,3324
2017-10-24T10:01:15.597Z,3216
2017-10-24T10:02:15.600Z,3148
2017-10-24T10:03:15.245Z,3456
2017-10-24T10:04:15.554Z,3712
2017-10-24T10:05:14.929Z,4016
2017-10-24T10:06:15.902Z,3232
2017-10-24T10:07:15.859Z,2864
2017-10-24T10:08:15.850Z,2884
2017-10-24T10:09:15.186Z,2744
2017-10-24T10:10:15.154Z,2420
2017-10-24T10:11:15.480Z,2620
2017-10-24T10:12:15.800Z,4120
2017-10-24T10:13:14.792Z,5888
2017-10-24T10:14:14.776Z,6580
2017-10-24T10:15:15.434Z,6180
2017-10-24T10:16:15.421Z,5708
2017-10-24T10:17:14.750Z,5720
2017-10-24T10:18:15.059Z,7104
2017-10-24T10:19:15.372Z,9168
2017-10-24T10:20:15.385Z,9040
2017-10-24T10:21:15.010Z,8320
2017-10-24T10:22:14.996Z,7524
2017-10-24T10:23:14.985Z,6488
2017-10-24T10:24:14.962Z,7244
2017-10-24T10:25:14.959Z,11120
2017-10-24T10:26:15.296Z,10088
2017-10-24T10:27:15.266Z,10856
2017-10-24T10:28:14.923Z,8464
2017-10-24T10:29:14.942Z,8424
2017-10-24T10:30:14.559Z,7092
2017-10-24T10:31:15.612Z,7264
2017-10-24T10:32:15.206Z,7916
2017-10-24T10:33:14.877Z,8268
2017-10-24T10:34:15.192Z,8700
2017-10-24T10:35:14.871Z,6684
2017-10-24T10:36:14.819Z,7484
2017-10-24T10:37:15.147Z,9188
2017-10-24T10:38:15.140Z,8020
2017-10-24T10:39:15.464Z,6516
2017-10-24T10:40:15.455Z,5976
2017-10-24T10:41:15.450Z,5040
2017-10-24T10:42:14.752Z,4256
2017-10-24T10:43:15.079Z,4912
2017-10-24T10:44:14.393Z,5796
2017-10-24T10:45:15.076Z,6056
2017-10-24T10:46:15.386Z,5588
2017-10-24T10:47:14.718Z,5156
2017-10-24T10:48:15.365Z,5564
2017-10-24T10:49:15.035Z,6440
2017-10-24T10:50:15.331Z,7812
2017-10-24T10:51:14.990Z,8676
2017-10-24T10:52:15.309Z,8772
2017-10-24T10:53:14.948Z,9992
2017-10-24T10:54:14.959Z,12840
2017-10-24T10:55:14.601Z,13624
2017-10-24T10:56:15.249Z,11456
2017-10-24T10:57:15.243Z,9080
2017-10-24T10:58:14.565Z,7756
2017-10-24T10:59:14.879Z,11940
2017-10-24T11:00:14.206Z,13200
2017-10-24T11:01:14.525Z,14904
2017-10-24T11:02:15.190Z,13964
2017-10-24T11:03:14.847Z,13120
2017-10-24T11:04:14.500Z,14060
2017-10-24T11:05:14.817Z,15260
2017-10-24T11:06:14.808Z,18176
2017-10-24T11:07:14.799Z,18016
2017-10-24T11:08:15.120Z,15536
2017-10-24T11:09:14.440Z,16136
2017-10-24T11:10:14.423Z,17312
2017-10-24T11:11:14.757Z,14924
2017-10-24T11:12:14.740Z,13048
2017-10-24T11:13:15.073Z,15656
2017-10-24T11:14:14.392Z,13256
2017-10-24T11:15:14.716Z,12416
2017-10-24T11:16:14.035Z,11768
2017-10-24T11:17:15.018Z,12488
2017-10-24T11:18:14.695Z,13528
2017-10-24T11:19:14.351Z,18336
2017-10-24T11:20:14.691Z,16092
2017-10-24T11:21:14.320Z,15180
2017-10-24T11:22:14.665Z,13204
2017-10-24T11:23:14.630Z,11756
2017-10-24T11:24:14.634Z,11188
2017-10-24T11:25:14.284Z,12440
2017-10-24T11:26:14.606Z,12836
2017-10-24T11:27:13.926Z,11424
2017-10-24T11:28:14.253Z,10344
2017-10-24T11:29:14.575Z,9552
2017-10-24T11:30:13.912Z,9204
2017-10-24T11:31:14.889Z,9740
2017-10-24T11:32:14.210Z,9804
2017-10-24T11:33:13.877Z,11032
2017-10-24T11:34:14.530Z,12288
2017-10-24T11:35:14.522Z,13608
2017-10-24T11:36:14.508Z,11768
2017-10-24T11:37:14.159Z,9976
2017-10-24T11:38:14.526Z,8280
2017-10-24T11:39:14.153Z,10576
2017-10-24T11:40:14.511Z,12728
2017-10-24T11:41:14.117Z,12640
2017-10-24T11:42:13.781Z,10720
2017-10-24T11:43:14.112Z,9128
2017-10-24T11:44:14.087Z,7944
2017-10-24T11:45:14.408Z,7944
2017-10-24T11:46:13.731Z,7032
2017-10-24T11:47:13.732Z,5836
2017-10-24T11:48:14.053Z,5884
2017-10-24T11:49:14.370Z,5572
2017-10-24T11:50:14.026Z,6108
2017-10-24T11:51:14.023Z,6568
2017-10-24T11:52:13.675Z,6684
2017-10-24T11:53:14.342Z,6796
2017-10-24T11:54:14.328Z,6120
2017-10-24T11:55:14.649Z,4180
2017-10-24T11:56:14.293Z,3504
2017-10-24T11:57:13.960Z,3228
2017-10-24T11:58:14.290Z,3220
2017-10-24T11:59:13.936Z,3244
2017-10-24T12:00:14.284Z,3688
2017-10-24T12:01:14.303Z,4044
2017-10-24T12:02:14.240Z,4068
2017-10-24T12:03:14.575Z,3484
2017-10-24T12:04:14.215Z,3484
2017-10-24T12:05:14.554Z,3536
2017-10-24T12:06:14.213Z,4244
2017-10-24T12:07:14.181Z,4020
2017-10-24T12:08:13.836Z,3004
2017-10-24T12:09:14.164Z,3024
2017-10-24T12:10:14.160Z,3856
2017-10-24T12:11:13.808Z,3732
2017-10-24T12:12:14.134Z,3180
2017-10-24T12:13:14.456Z,3588
2017-10-24T12:14:13.771Z,3028
2017-10-24T12:15:14.098Z,2648
2017-10-24T12:16:14.415Z,2532
2017-10-24T12:17:14.067Z,2520
2017-10-24T12:18:14.060Z,2504
2017-10-24T12:19:14.389Z,2380
2017-10-24T12:20:14.040Z,2668
2017-10-24T12:21:14.033Z,2700
2017-10-24T12:22:13.685Z,2612
2017-10-24T12:23:14.004Z,2664
2017-10-24T12:24:13.998Z,2760
2017-10-24T12:25:13.311Z,2544
2017-10-24T12:26:13.298Z,2616
2017-10-24T12:27:13.953Z,2740
2017-10-24T12:28:13.944Z,2600
2017-10-24T12:29:13.938Z,2640
2017-10-24T12:30:13.926Z,2740
2017-10-24T12:31:14.242Z,2604
2017-10-24T12:32:14.243Z,2452
2017-10-24T12:33:13.545Z,2704
2017-10-24T12:34:13.546Z,2444
2017-10-24T12:35:13.527Z,2224
2017-10-24T12:36:13.849Z,2172
2017-10-24T12:37:13.508Z,2684
2017-10-24T12:38:13.824Z,3084
2017-10-24T12:39:13.484Z,3284
2017-10-24T12:40:13.460Z,3580
2017-10-24T12:41:13.124Z,3100
2017-10-24T12:42:13.441Z,2860
2017-10-24T12:43:13.766Z,2936
2017-10-24T12:44:14.087Z,2556
2017-10-24T12:45:13.735Z,2792
2017-10-24T12:46:13.391Z,2644
2017-10-24T12:47:13.375Z,2376
2017-10-24T12:48:13.709Z,2104
2017-10-24T12:49:13.365Z,2052
2017-10-24T12:50:13.342Z,1844
2017-10-24T12:51:13.336Z,1464
2017-10-24T12:52:13.316Z,1228
2017-10-24T12:53:13.639Z,1512
2017-10-24T12:54:13.300Z,1688
2017-10-24T12:55:13.615Z,1480
2017-10-24T12:56:13.945Z,1416
2017-10-24T12:57:13.604Z,1324
2017-10-24T12:58:13.608Z,1348
2017-10-24T12:59:13.586Z,1716
2017-10-24T13:00:13.566Z,1948
2017-10-24T13:01:13.548Z,1936
2017-10-24T13:02:13.532Z,2180
2017-10-24T13:03:13.189Z,1844
2017-10-24T13:04:13.506Z,2240
2017-10-24T13:05:13.493Z,2032
2017-10-24T13:06:13.478Z,2096
2017-10-24T13:07:13.814Z,2356
2017-10-24T13:08:13.801Z,2312
2017-10-24T13:09:13.114Z,2108
2017-10-24T13:10:13.438Z,2352
2017-10-24T13:11:13.417Z,2660
2017-10-24T13:12:13.422Z,2472
2017-10-24T13:13:13.409Z,2440
2017-10-24T13:14:13.736Z,2356
2017-10-24T13:15:13.403Z,1772
2017-10-24T13:16:13.031Z,1788
2017-10-24T13:17:13.352Z,2608
2017-10-24T13:18:13.669Z,2284
2017-10-24T13:19:12.985Z,2172
2017-10-24T13:20:12.978Z,2164
2017-10-24T13:21:13.311Z,2092
2017-10-24T13:22:13.658Z,2096
2017-10-24T13:23:12.940Z,1724
2017-10-24T13:24:13.126Z,2068
2017-10-24T13:25:13.251Z,1980
2017-10-24T13:26:13.236Z,1848
2017-10-24T13:27:13.558Z,1772
2017-10-24T13:28:13.211Z,2144
2017-10-24T13:29:13.191Z,2252
2017-10-24T13:30:13.181Z,2356
2017-10-24T13:31:12.840Z,1900
2017-10-24T13:32:12.820Z,1872
2017-10-24T13:33:12.492Z,2220
2017-10-24T13:34:13.130Z,2220
2017-10-24T13:35:12.779Z,1884
2017-10-24T13:36:12.776Z,1868
2017-10-24T13:37:13.433Z,1772
2017-10-24T13:38:12.747Z,1744
2017-10-24T13:39:13.403Z,1856
2017-10-24T13:40:13.055Z,2016
2017-10-24T13:41:13.068Z,1860
2017-10-24T13:42:13.029Z,1812
2017-10-24T13:43:13.350Z,1872
2017-10-24T13:44:13.004Z,2020
2017-10-24T13:45:13.013Z,2196
2017-10-24T13:46:12.636Z,2260
2017-10-24T13:47:12.965Z,2192
2017-10-24T13:48:12.959Z,1828
2017-10-24T13:49:13.273Z,1704
2017-10-24T13:50:12.925Z,1776
2017-10-24T13:51:13.243Z,2280
2017-10-24T13:52:12.244Z,2404
2017-10-24T13:53:12.925Z,2640
2017-10-24T13:54:13.210Z,3028
2017-10-24T13:55:13.209Z,3272
2017-10-24T13:56:12.847Z,3100